createdAt,value
2016-02-09T00:00:30.317Z,987
2016-02-09T00:01:30.366Z,987.06
2016-02-09T00:02:30.417Z,987.03
2016-02-09T00:03:30.466Z,987
2016-02-09T00:04:30.515Z,986.93
2016-02-09T00:05:30.582Z,987.1
2016-02-09T00:06:30.631Z,986.95
2016-02-09T00:07:30.680Z,987.17
2016-02-09T00:08:30.746Z,987.18
2016-02-09T00:09:30.796Z,987.12
2016-02-09T00:10:30.845Z,987.09
2016-02-09T00:11:30.895Z,987.13
2016-02-09T00:12:30.960Z,987.07
2016-02-09T00:13:31.010Z,987.16
2016-02-09T00:14:31.058Z,987.22
2016-02-09T00:15:31.124Z,987.18
2016-02-09T00:16:31.173Z,987.22
2016-02-09T00:17:31.223Z,987.27
2016-02-09T00:18:31.273Z,987.27
2016-02-09T00:19:31.323Z,987.28
2016-02-09T00:20:31.388Z,987.35
2016-02-09T00:21:31.438Z,987.31
2016-02-09T00:22:31.487Z,987.34
2016-02-09T00:23:31.545Z,987.41
2016-02-09T00:24:31.595Z,987.37
2016-02-09T00:25:31.645Z,987.35
2016-02-09T00:26:31.709Z,987.41
2016-02-09T00:27:31.762Z,987.4
2016-02-09T00:28:31.812Z,987.35
2016-02-09T00:29:31.861Z,987.5
2016-02-09T00:30:31.926Z,987.36
2016-02-09T00:31:31.976Z,987.46
2016-02-09T00:32:32.025Z,987.41
2016-02-09T00:33:32.090Z,987.47
2016-02-09T00:34:32.139Z,987.4
2016-02-09T00:35:32.190Z,987.49
2016-02-09T00:36:32.239Z,987.5
2016-02-09T00:37:32.304Z,987.48
2016-02-09T00:38:32.353Z,987.44
2016-02-09T00:39:32.403Z,987.44
2016-02-09T00:40:32.469Z,987.56
2016-02-09T00:41:32.521Z,987.56
2016-02-09T00:42:32.570Z,987.65
2016-02-09T00:43:32.620Z,987.59
2016-02-09T00:44:32.685Z,987.63
2016-02-09T00:45:32.720Z,987.65
2016-02-09T00:46:32.785Z,987.57
2016-02-09T00:47:32.834Z,987.64
2016-02-09T00:48:32.885Z,987.68
2016-02-09T00:49:32.935Z,987.66
2016-02-09T00:50:33.001Z,987.74
2016-02-09T00:51:33.049Z,987.65
2016-02-09T00:52:33.106Z,987.63
2016-02-09T00:53:33.155Z,987.6
2016-02-09T00:54:33.222Z,987.74
2016-02-09T00:55:33.255Z,987.68
2016-02-09T00:56:33.336Z,987.7
2016-02-09T00:57:33.370Z,987.7
2016-02-09T00:58:33.419Z,987.7
2016-02-09T00:59:33.485Z,987.71
2016-02-09T01:00:33.533Z,987.82
2016-02-09T01:01:33.583Z,987.7
2016-02-09T01:02:33.648Z,987.7
2016-02-09T01:03:33.699Z,987.91
2016-02-09T01:04:33.750Z,987.71
2016-02-09T01:05:33.798Z,987.73
2016-02-09T01:06:33.863Z,987.71
2016-02-09T01:07:33.914Z,987.7
2016-02-09T01:08:33.963Z,987.83
2016-02-09T01:09:34.013Z,987.67
2016-02-09T01:10:34.078Z,987.81
2016-02-09T01:11:34.127Z,987.72
2016-02-09T01:12:34.192Z,987.85
2016-02-09T01:13:34.226Z,987.87
2016-02-09T01:14:34.277Z,987.8
2016-02-09T01:15:34.341Z,987.82
2016-02-09T01:16:34.391Z,987.78
2016-02-09T01:17:34.442Z,987.97
2016-02-09T01:18:34.506Z,987.91
2016-02-09T01:19:34.587Z,987.93
2016-02-09T01:20:34.605Z,987.85
2016-02-09T01:21:34.670Z,988
2016-02-09T01:22:34.720Z,987.95
2016-02-09T01:23:34.769Z,987.99
2016-02-09T01:24:34.819Z,987.92
2016-02-09T01:25:34.869Z,988.05
2016-02-09T01:26:34.933Z,987.98
2016-02-09T01:27:34.984Z,987.92
2016-02-09T01:28:35.033Z,988.04
2016-02-09T01:29:35.082Z,987.9
2016-02-09T01:30:35.150Z,988.03
2016-02-09T01:31:35.199Z,988.1
2016-02-09T01:32:35.249Z,988
2016-02-09T01:33:35.314Z,988.07
2016-02-09T01:34:35.348Z,988.07
2016-02-09T01:35:35.414Z,988.04
2016-02-09T01:36:35.463Z,988.1
2016-02-09T01:37:35.512Z,988.1
2016-02-09T01:38:35.578Z,988.01
2016-02-09T01:39:35.629Z,988.1
2016-02-09T01:40:35.678Z,988
2016-02-09T01:41:35.727Z,988.06
2016-02-09T01:42:35.792Z,988.1
2016-02-09T01:43:35.843Z,988.31
2016-02-09T01:44:35.893Z,988.22
2016-02-09T01:45:35.958Z,988.16
2016-02-09T01:46:36.008Z,988.25
2016-02-09T01:47:36.058Z,988.18
2016-02-09T01:48:36.108Z,988.28
2016-02-09T01:49:36.173Z,988.25
2016-02-09T01:50:36.222Z,988.23
2016-02-09T01:51:36.271Z,988.3
2016-02-09T01:52:36.324Z,988.32
2016-02-09T01:53:36.375Z,988.48
2016-02-09T01:54:36.424Z,988.33
2016-02-09T01:55:36.479Z,988.34
2016-02-09T01:56:36.544Z,988.35
2016-02-09T01:57:36.593Z,988.36
2016-02-09T01:58:36.644Z,988.35
2016-02-09T01:59:36.708Z,988.32
2016-02-09T02:00:36.760Z,988.29
2016-02-09T02:01:36.810Z,988.29
2016-02-09T02:02:36.859Z,988.42
2016-02-09T02:03:36.908Z,988.38
2016-02-09T02:04:36.974Z,988.52
2016-02-09T02:05:37.039Z,988.32
2016-02-09T02:06:37.073Z,988.51
2016-02-09T02:07:37.123Z,988.28
2016-02-09T02:08:37.188Z,988.46
2016-02-09T02:09:37.253Z,988.49
2016-02-09T02:10:37.302Z,988.51
2016-02-09T02:11:37.337Z,988.6
2016-02-09T02:12:37.401Z,988.6
2016-02-09T02:13:37.454Z,988.54
2016-02-09T02:14:37.502Z,988.62
2016-02-09T02:15:37.568Z,988.72
2016-02-09T02:16:37.602Z,988.56
2016-02-09T02:17:37.667Z,988.65
2016-02-09T02:18:37.732Z,988.57
2016-02-09T02:19:37.770Z,988.51
2016-02-09T02:20:37.820Z,988.67
2016-02-09T02:21:37.885Z,988.58
2016-02-09T02:22:37.935Z,988.45
2016-02-09T02:23:37.985Z,988.61
2016-02-09T02:24:38.046Z,988.64
2016-02-09T02:25:38.095Z,988.63
2016-02-09T02:26:38.145Z,988.72
2016-02-09T02:27:38.197Z,988.61
2016-02-09T02:28:38.262Z,988.63
2016-02-09T02:29:38.312Z,988.56
2016-02-09T02:30:38.361Z,988.69
2016-02-09T02:31:38.411Z,988.63
2016-02-09T02:32:38.461Z,988.75
2016-02-09T02:33:38.527Z,988.7
2016-02-09T02:34:38.576Z,988.56
2016-02-09T02:35:38.624Z,988.65
2016-02-09T02:36:38.706Z,988.59
2016-02-09T02:37:38.740Z,988.53
2016-02-09T02:38:38.789Z,988.56
2016-02-09T02:39:38.839Z,988.62
2016-02-09T02:40:38.888Z,988.56
2016-02-09T02:41:38.955Z,988.61
2016-02-09T02:42:39.005Z,988.56
2016-02-09T02:43:39.055Z,988.51
2016-02-09T02:44:39.103Z,988.48
2016-02-09T02:45:39.169Z,988.47
2016-02-09T02:46:39.219Z,988.51
2016-02-09T02:47:39.269Z,988.5
2016-02-09T02:48:39.333Z,988.53
2016-02-09T02:49:39.385Z,988.54
2016-02-09T02:50:39.435Z,988.48
2016-02-09T02:51:39.484Z,988.77
2016-02-09T02:52:39.536Z,988.51
2016-02-09T02:53:39.601Z,988.57
2016-02-09T02:54:39.650Z,988.51
2016-02-09T02:55:39.701Z,988.59
2016-02-09T02:56:39.765Z,988.46
2016-02-09T02:57:39.815Z,988.47
2016-02-09T02:58:39.864Z,988.52
2016-02-09T02:59:39.914Z,988.5
2016-02-09T03:00:39.964Z,988.51
2016-02-09T03:01:40.014Z,988.46
2016-02-09T03:02:40.080Z,988.45
2016-02-09T03:03:40.130Z,988.42
2016-02-09T03:04:40.946Z,988.47
2016-02-09T03:05:40.245Z,988.47
2016-02-09T03:06:40.279Z,988.44
2016-02-09T03:07:40.344Z,988.31
2016-02-09T03:08:40.393Z,988.24
2016-02-09T03:09:40.443Z,988.4
2016-02-09T03:10:40.508Z,988.37
2016-02-09T03:11:40.558Z,988.36
2016-02-09T03:12:40.608Z,988.28
2016-02-09T03:13:40.658Z,988.23
2016-02-09T03:14:40.724Z,988.3
2016-02-09T03:15:40.772Z,988.26
2016-02-09T03:16:40.823Z,988.3
2016-02-09T03:17:40.873Z,988.37
2016-02-09T03:18:40.939Z,988.15
2016-02-09T03:19:40.988Z,988.3
2016-02-09T03:20:41.038Z,988.14
2016-02-09T03:21:41.088Z,988.24
2016-02-09T03:22:41.140Z,988.28
2016-02-09T03:23:41.206Z,988.28
2016-02-09T03:24:41.255Z,988.3
2016-02-09T03:25:41.305Z,988.3
2016-02-09T03:26:41.355Z,988.34
2016-02-09T03:27:41.421Z,988.22
2016-02-09T03:28:41.471Z,988.33
2016-02-09T03:29:41.519Z,988.36
2016-02-09T03:30:41.585Z,988.42
2016-02-09T03:31:41.618Z,988.32
2016-02-09T03:32:41.684Z,988.51
2016-02-09T03:33:41.734Z,988.5
2016-02-09T03:34:41.783Z,988.48
2016-02-09T03:35:41.832Z,988.33
2016-02-09T03:36:41.882Z,988.48
2016-02-09T03:37:41.948Z,988.42
2016-02-09T03:38:41.998Z,988.52
2016-02-09T03:39:42.048Z,988.49
2016-02-09T03:40:42.114Z,988.5
2016-02-09T03:41:42.163Z,988.6
2016-02-09T03:42:42.213Z,988.6
2016-02-09T03:43:42.263Z,988.55
2016-02-09T03:44:42.328Z,988.68
2016-02-09T03:45:42.378Z,988.66
2016-02-09T03:46:42.431Z,988.6
2016-02-09T03:47:42.481Z,988.55
2016-02-09T03:48:42.530Z,988.68
2016-02-09T03:49:42.579Z,988.67
2016-02-09T03:50:42.648Z,988.65
2016-02-09T03:51:42.698Z,988.86
2016-02-09T03:52:42.747Z,988.75
2016-02-09T03:53:42.796Z,988.66
2016-02-09T03:54:42.846Z,988.79
2016-02-09T03:55:42.911Z,988.78
2016-02-09T03:56:42.961Z,988.74
2016-02-09T03:57:43.010Z,988.78
2016-02-09T03:58:43.059Z,988.84
2016-02-09T03:59:43.125Z,988.73
2016-02-09T04:00:43.180Z,988.71
2016-02-09T04:01:43.228Z,988.77
2016-02-09T04:02:43.278Z,988.83
2016-02-09T04:03:43.343Z,988.79
2016-02-09T04:04:43.393Z,988.81
2016-02-09T04:05:43.442Z,988.84
2016-02-09T04:06:43.491Z,988.83
2016-02-09T04:07:43.557Z,988.82
2016-02-09T04:08:43.593Z,988.91
2016-02-09T04:09:43.659Z,988.85
2016-02-09T04:10:43.708Z,988.82
2016-02-09T04:11:43.757Z,988.85
2016-02-09T04:12:43.822Z,988.78
2016-02-09T04:13:43.876Z,988.67
2016-02-09T04:14:43.926Z,988.87
2016-02-09T04:15:43.974Z,988.76
2016-02-09T04:16:44.024Z,988.64
2016-02-09T04:17:44.090Z,988.67
2016-02-09T04:18:44.140Z,988.79
2016-02-09T04:19:44.189Z,988.72
2016-02-09T04:20:44.239Z,988.73
2016-02-09T04:21:44.305Z,988.72
2016-02-09T04:22:44.355Z,988.76
2016-02-09T04:23:44.404Z,988.76
2016-02-09T04:24:44.454Z,988.75
2016-02-09T04:25:44.519Z,988.77
2016-02-09T04:26:44.568Z,988.84
2016-02-09T04:27:44.620Z,988.89
2016-02-09T04:28:44.670Z,988.7
2016-02-09T04:29:44.720Z,988.73
2016-02-09T04:30:44.768Z,988.65
2016-02-09T04:31:44.834Z,988.7
2016-02-09T04:32:44.884Z,988.64
2016-02-09T04:33:44.934Z,988.63
2016-02-09T04:34:44.983Z,988.67
2016-02-09T04:35:45.049Z,988.65
2016-02-09T04:36:45.099Z,988.65
2016-02-09T04:37:45.149Z,988.72
2016-02-09T04:38:45.198Z,988.7
2016-02-09T04:39:45.263Z,988.53
2016-02-09T04:40:45.313Z,988.62
2016-02-09T04:41:45.362Z,988.68
2016-02-09T04:42:45.412Z,988.55
2016-02-09T04:43:45.477Z,988.58
2016-02-09T04:44:45.527Z,988.65
2016-02-09T04:45:45.577Z,988.51
2016-02-09T04:46:45.627Z,988.52
2016-02-09T04:47:45.691Z,988.6
2016-02-09T04:48:45.741Z,988.55
2016-02-09T04:49:45.792Z,988.55
2016-02-09T04:50:45.844Z,988.62
2016-02-09T04:51:45.893Z,988.48
2016-02-09T04:52:45.944Z,988.5
2016-02-09T04:53:46.008Z,988.52
2016-02-09T04:54:46.058Z,988.5
2016-02-09T04:55:46.108Z,988.52
2016-02-09T04:56:46.173Z,988.44
2016-02-09T04:57:46.223Z,988.42
2016-02-09T04:58:46.273Z,988.42
2016-02-09T04:59:46.323Z,988.42
2016-02-09T05:00:46.387Z,988.38
2016-02-09T05:01:46.437Z,988.27
2016-02-09T05:02:46.486Z,988.4
2016-02-09T05:03:46.538Z,988.35
2016-02-09T05:04:46.587Z,988.49
2016-02-09T05:05:46.652Z,988.32
2016-02-09T05:06:46.701Z,988.34
2016-02-09T05:07:46.751Z,988.54
2016-02-09T05:08:46.801Z,988.31
2016-02-09T05:09:46.867Z,988.32
2016-02-09T05:10:46.915Z,988.4
2016-02-09T05:11:46.982Z,988.33
2016-02-09T05:12:47.015Z,988.36
2016-02-09T05:13:47.082Z,988.36
2016-02-09T05:14:47.131Z,988.3
2016-02-09T05:15:47.179Z,988.35
2016-02-09T05:16:47.229Z,988.47
2016-02-09T05:17:47.279Z,988.34
2016-02-09T05:18:47.329Z,988.29
2016-02-09T05:19:47.394Z,988.3
2016-02-09T05:20:47.443Z,988.3
2016-02-09T05:21:47.492Z,988.34
2016-02-09T05:22:47.566Z,988.24
2016-02-09T05:23:47.615Z,988.34
2016-02-09T05:24:47.664Z,988.21
2016-02-09T05:25:47.713Z,988.25
2016-02-09T05:26:47.763Z,988.11
2016-02-09T05:27:47.813Z,988.17
2016-02-09T05:28:47.879Z,988.15
2016-02-09T05:29:47.927Z,988.19
2016-02-09T05:30:47.974Z,988.09
2016-02-09T05:31:48.023Z,988.11
2016-02-09T05:32:48.090Z,988.08
2016-02-09T05:33:48.141Z,988.08
2016-02-09T05:34:48.190Z,987.99
2016-02-09T05:35:48.239Z,988.08
2016-02-09T05:36:48.305Z,987.95
2016-02-09T05:37:48.355Z,988.02
2016-02-09T05:38:48.404Z,987.97
2016-02-09T05:39:48.469Z,987.94
2016-02-09T05:40:48.519Z,987.9
2016-02-09T05:41:48.569Z,987.86
2016-02-09T05:42:48.618Z,987.85
2016-02-09T05:43:48.668Z,987.86
2016-02-09T05:44:48.732Z,987.77
2016-02-09T05:45:48.782Z,987.73
2016-02-09T05:46:48.835Z,987.73
2016-02-09T05:47:48.884Z,987.74
2016-02-09T05:48:48.948Z,987.66
2016-02-09T05:49:48.982Z,987.69
2016-02-09T05:50:49.047Z,987.64
2016-02-09T05:51:49.098Z,987.67
2016-02-09T05:52:49.147Z,987.72
2016-02-09T05:53:49.198Z,987.76
2016-02-09T05:54:49.263Z,987.81
2016-02-09T05:55:49.313Z,987.92
2016-02-09T05:56:49.363Z,987.91
2016-02-09T05:57:49.413Z,988.09
2016-02-09T05:58:49.461Z,988.05
2016-02-09T05:59:49.527Z,988.01
2016-02-09T06:00:49.593Z,988.15
2016-02-09T06:01:49.627Z,988.1
2016-02-09T06:02:49.677Z,988.19
2016-02-09T06:03:49.742Z,988.14
2016-02-09T06:04:49.792Z,988.08
2016-02-09T06:05:49.841Z,988.22
2016-02-09T06:06:49.896Z,988.23
2016-02-09T06:07:49.960Z,988.15
2016-02-09T06:08:50.011Z,988.12
2016-02-09T06:09:50.061Z,988.07
2016-02-09T06:10:50.111Z,988.17
2016-02-09T06:11:50.160Z,988.15
2016-02-09T06:12:50.225Z,988.03
2016-02-09T06:13:50.274Z,988.09
2016-02-09T06:14:50.326Z,988
2016-02-09T06:15:50.376Z,987.97
2016-02-09T06:16:50.430Z,988.01
2016-02-09T06:17:50.480Z,988
2016-02-09T06:18:50.531Z,988.01
2016-02-09T06:19:50.596Z,987.92
2016-02-09T06:20:50.644Z,987.97
2016-02-09T06:21:50.702Z,987.98
2016-02-09T06:22:50.752Z,987.93
2016-02-09T06:23:50.802Z,987.89
2016-02-09T06:24:50.851Z,987.89
2016-02-09T06:25:50.916Z,987.87
2016-02-09T06:26:50.970Z,987.84
2016-02-09T06:27:51.020Z,987.87
2016-02-09T06:28:51.070Z,987.82
2016-02-09T06:29:51.120Z,987.75
2016-02-09T06:30:51.170Z,987.74
2016-02-09T06:31:51.236Z,987.73
2016-02-09T06:32:51.286Z,987.8
2016-02-09T06:33:51.336Z,987.73
2016-02-09T06:34:51.400Z,987.64
2016-02-09T06:35:51.451Z,987.66
2016-02-09T06:36:51.501Z,987.7
2016-02-09T06:37:51.550Z,987.67
2016-02-09T06:38:51.599Z,987.69
2016-02-09T06:39:51.665Z,987.71
2016-02-09T06:40:51.714Z,987.79
2016-02-09T06:41:51.764Z,987.88
2016-02-09T06:42:51.814Z,987.89
2016-02-09T06:43:51.863Z,987.84
2016-02-09T06:44:51.929Z,987.82
2016-02-09T06:45:51.979Z,987.83
2016-02-09T06:46:52.028Z,987.69
2016-02-09T06:47:52.078Z,987.72
2016-02-09T06:48:52.159Z,987.78
2016-02-09T06:49:52.195Z,987.66
2016-02-09T06:50:52.246Z,987.65
2016-02-09T06:51:52.295Z,987.6
2016-02-09T06:52:52.349Z,987.66
2016-02-09T06:53:52.414Z,987.58
2016-02-09T06:54:52.464Z,987.62
2016-02-09T06:55:52.514Z,987.6
2016-02-09T06:56:52.564Z,987.58
2016-02-09T06:57:52.616Z,987.59
2016-02-09T06:58:52.664Z,987.63
2016-02-09T06:59:52.731Z,987.5
2016-02-09T07:00:52.780Z,987.57
2016-02-09T07:01:52.830Z,987.53
2016-02-09T07:02:52.879Z,987.51
2016-02-09T07:03:52.928Z,987.42
2016-02-09T07:04:52.984Z,987.47
2016-02-09T07:05:53.049Z,987.47
2016-02-09T07:06:53.100Z,987.45
2016-02-09T07:07:53.148Z,987.35
2016-02-09T07:08:53.214Z,987.4
2016-02-09T07:09:53.247Z,987.39
2016-02-09T07:10:53.297Z,987.39
2016-02-09T07:11:53.365Z,987.31
2016-02-09T07:12:53.416Z,987.3
2016-02-09T07:13:53.465Z,987.19
2016-02-09T07:14:53.530Z,987.3
2016-02-09T07:15:53.581Z,987.28
2016-02-09T07:16:53.629Z,987.27
2016-02-09T07:17:53.679Z,987.26
2016-02-09T07:18:53.729Z,987.25
2016-02-09T07:19:53.778Z,987.27
2016-02-09T07:20:53.844Z,987.26
2016-02-09T07:21:53.893Z,987.29
2016-02-09T07:22:53.942Z,987.28
2016-02-09T07:23:54.008Z,987.22
2016-02-09T07:24:54.047Z,987.26
2016-02-09T07:25:54.111Z,987.21
2016-02-09T07:26:54.161Z,987.21
2016-02-09T07:27:54.211Z,987.19
2016-02-09T07:28:54.260Z,987.05
2016-02-09T07:29:54.326Z,987.04
2016-02-09T07:30:54.375Z,987.06
2016-02-09T07:31:54.424Z,987.14
2016-02-09T07:32:54.474Z,987.18
2016-02-09T07:33:54.541Z,987.03
2016-02-09T07:34:54.591Z,987.1
2016-02-09T07:35:54.639Z,987.08
2016-02-09T07:36:54.689Z,987.03
2016-02-09T07:37:54.739Z,987.03
2016-02-09T07:38:54.789Z,987.05
2016-02-09T07:39:54.870Z,986.99
2016-02-09T07:40:54.903Z,986.98
2016-02-09T07:41:54.954Z,986.89
2016-02-09T07:42:55.004Z,986.91
2016-02-09T07:43:55.054Z,986.88
2016-02-09T07:44:55.119Z,986.89
2016-02-09T07:45:55.168Z,986.94
2016-02-09T07:46:55.218Z,986.95
2016-02-09T07:47:55.270Z,987
2016-02-09T07:48:55.337Z,986.92
2016-02-09T07:49:55.385Z,986.96
2016-02-09T07:50:55.434Z,986.96
2016-02-09T07:51:55.484Z,986.9
2016-02-09T07:52:55.550Z,986.98
2016-02-09T07:53:55.601Z,986.95
2016-02-09T07:54:55.650Z,986.92
2016-02-09T07:55:55.702Z,986.86
2016-02-09T07:56:55.751Z,986.85
2016-02-09T07:57:55.802Z,986.87
2016-02-09T07:58:55.866Z,986.87
2016-02-09T07:59:55.915Z,986.96
2016-02-09T08:00:55.968Z,986.99
2016-02-09T08:01:56.017Z,986.92
2016-02-09T08:02:56.067Z,986.86
2016-02-09T08:03:56.117Z,986.86
2016-02-09T08:04:56.182Z,986.83
2016-02-09T08:05:56.232Z,986.81
2016-02-09T08:06:56.281Z,986.83
2016-02-09T08:07:56.347Z,986.76
2016-02-09T08:08:56.398Z,986.76
2016-02-09T08:09:56.447Z,986.69
2016-02-09T08:10:56.497Z,986.73
2016-02-09T08:11:56.547Z,986.67
2016-02-09T08:12:56.612Z,986.63
2016-02-09T08:13:56.661Z,986.67
2016-02-09T08:14:56.715Z,986.62
2016-02-09T08:15:56.780Z,986.54
2016-02-09T08:16:56.815Z,986.54
2016-02-09T08:17:56.868Z,986.49
2016-02-09T08:18:56.917Z,986.49
2016-02-09T08:19:56.983Z,986.48
2016-02-09T08:20:57.032Z,986.4
2016-02-09T08:21:57.085Z,986.4
2016-02-09T08:22:57.137Z,986.32
2016-02-09T08:23:57.185Z,986.38
2016-02-09T08:24:57.234Z,986.32
2016-02-09T08:25:57.301Z,986.32
2016-02-09T08:26:57.350Z,986.28
2016-02-09T08:27:57.400Z,986.24
2016-02-09T08:28:57.465Z,986.21
2016-02-09T08:29:57.514Z,986.25
2016-02-09T08:30:57.568Z,986.21
2016-02-09T08:31:57.618Z,986.11
2016-02-09T08:32:57.667Z,986.1
2016-02-09T08:33:57.716Z,986.12
2016-02-09T08:34:57.765Z,986.05
2016-02-09T08:35:57.832Z,986.04
2016-02-09T08:36:57.881Z,986.01
2016-02-09T08:37:57.929Z,986.08
2016-02-09T08:38:57.980Z,986.09
2016-02-09T08:39:58.043Z,986.07
2016-02-09T08:40:58.080Z,986.07
2016-02-09T08:41:58.117Z,986.1
2016-02-09T08:42:58.152Z,986.1
2016-02-09T08:43:58.190Z,986.12
2016-02-09T08:44:58.246Z,986.05
2016-02-09T08:45:58.291Z,986.12
2016-02-09T08:46:58.337Z,986.1
2016-02-09T08:47:58.380Z,986.14
2016-02-09T08:48:58.442Z,986.14
2016-02-09T08:49:58.489Z,986.16
2016-02-09T08:50:58.538Z,986.17
2016-02-09T08:51:58.584Z,986.1
2016-02-09T08:52:58.634Z,986.08
2016-02-09T08:53:58.682Z,986.03
2016-02-09T08:54:58.747Z,985.99
2016-02-09T08:55:58.796Z,985.97
2016-02-09T08:56:58.844Z,985.96
2016-02-09T08:57:58.894Z,985.97
2016-02-09T08:58:58.946Z,985.93
2016-02-09T08:59:59.012Z,985.92
2016-02-09T09:00:59.060Z,985.88
2016-02-09T09:01:59.109Z,985.84
2016-02-09T09:02:59.159Z,985.82
2016-02-09T09:03:59.224Z,985.8
2016-02-09T09:04:59.273Z,985.79
2016-02-09T09:05:59.322Z,985.66
2016-02-09T09:06:59.372Z,985.62
2016-02-09T09:07:59.422Z,985.57
2016-02-09T09:08:59.487Z,985.53
2016-02-09T09:09:59.538Z,985.46
2016-02-09T09:10:59.587Z,985.47
2016-02-09T09:11:59.636Z,985.41
2016-02-09T09:12:59.702Z,985.4
2016-02-09T09:13:59.752Z,985.38
2016-02-09T09:14:59.804Z,985.38
2016-02-09T09:15:59.852Z,985.36
2016-02-09T09:16:59.918Z,985.4
2016-02-09T09:17:59.968Z,985.36
2016-02-09T09:19:00.007Z,985.36
2016-02-09T09:20:00.072Z,985.35
2016-02-09T09:21:00.124Z,985.42
2016-02-09T09:22:00.175Z,985.3
2016-02-09T09:23:00.224Z,985.27
2016-02-09T09:24:00.273Z,985.23
2016-02-09T09:25:00.339Z,985.18
2016-02-09T09:26:00.388Z,985.11
2016-02-09T09:27:00.438Z,985.11
2016-02-09T09:28:00.487Z,985.1
2016-02-09T09:29:00.539Z,985.07
2016-02-09T09:30:00.604Z,985.12
2016-02-09T09:31:00.653Z,985.07
2016-02-09T09:32:00.703Z,985.11
2016-02-09T09:33:00.753Z,985.02
2016-02-09T09:34:00.803Z,985.03
2016-02-09T09:35:00.869Z,985
2016-02-09T09:36:00.918Z,985.01
2016-02-09T09:37:00.967Z,984.95
2016-02-09T09:38:01.018Z,984.95
2016-02-09T09:39:01.067Z,984.88
2016-02-09T09:40:01.131Z,984.89
2016-02-09T09:41:01.181Z,984.9
2016-02-09T09:42:01.231Z,984.9
2016-02-09T09:43:01.282Z,984.9
2016-02-09T09:44:01.346Z,984.9
2016-02-09T09:45:01.396Z,984.85
2016-02-09T09:46:01.462Z,984.85
2016-02-09T09:47:01.495Z,984.86
2016-02-09T09:48:01.556Z,984.88
2016-02-09T09:49:01.605Z,984.8
2016-02-09T09:50:01.653Z,984.85
2016-02-09T09:51:01.703Z,984.85
2016-02-09T09:52:01.753Z,984.82
2016-02-09T09:53:01.819Z,984.82
2016-02-09T09:54:01.868Z,984.74
2016-02-09T09:55:01.917Z,984.78
2016-02-09T09:56:01.968Z,984.71
2016-02-09T09:57:02.033Z,984.68
2016-02-09T09:58:02.084Z,984.68
2016-02-09T09:59:02.117Z,984.66
2016-02-09T10:00:02.181Z,984.66
2016-02-09T10:01:02.231Z,984.62
2016-02-09T10:02:02.281Z,984.66
2016-02-09T10:03:02.330Z,984.63
2016-02-09T10:04:02.380Z,984.62
2016-02-09T10:05:02.430Z,984.58
2016-02-09T10:06:02.495Z,984.55
2016-02-09T10:07:02.544Z,984.51
2016-02-09T10:08:02.594Z,984.43
2016-02-09T10:09:02.644Z,984.42
2016-02-09T10:10:02.693Z,984.37
2016-02-09T10:11:02.743Z,984.37
2016-02-09T10:12:02.792Z,984.34
2016-02-09T10:13:02.841Z,984.24
2016-02-09T10:14:02.907Z,984.21
2016-02-09T10:15:02.956Z,984.16
2016-02-09T10:16:03.007Z,984.12
2016-02-09T10:17:03.055Z,984.1
2016-02-09T10:18:03.105Z,984.02
2016-02-09T10:19:03.155Z,984.05
2016-02-09T10:20:03.209Z,984.05
2016-02-09T10:21:03.274Z,983.93
2016-02-09T10:22:03.322Z,983.91
2016-02-09T10:23:03.372Z,983.84
2016-02-09T10:24:03.422Z,983.84
2016-02-09T10:25:03.472Z,983.77
2016-02-09T10:26:03.521Z,983.76
2016-02-09T10:27:03.571Z,983.71
2016-02-09T10:28:03.621Z,983.7
2016-02-09T10:29:03.673Z,983.64
2016-02-09T10:30:03.723Z,983.7
2016-02-09T10:31:03.789Z,983.63
2016-02-09T10:32:03.839Z,983.57
2016-02-09T10:33:03.934Z,983.58
2016-02-09T10:34:03.937Z,983.59
2016-02-09T10:35:03.987Z,983.48
2016-02-09T10:36:04.036Z,983.45
2016-02-09T10:37:04.102Z,983.4
2016-02-09T10:38:04.136Z,983.34
2016-02-09T10:39:04.201Z,983.31
2016-02-09T10:40:04.250Z,983.19
2016-02-09T10:41:04.299Z,983.17
2016-02-09T10:42:04.350Z,983.1
2016-02-09T10:43:04.399Z,983.09
2016-02-09T10:44:04.463Z,983.09
2016-02-09T10:45:04.514Z,983.03
2016-02-09T10:46:04.565Z,983.04
2016-02-09T10:47:04.615Z,982.97
2016-02-09T10:48:04.665Z,982.86
2016-02-09T10:49:04.714Z,982.84
2016-02-09T10:50:04.779Z,982.85
2016-02-09T10:51:04.824Z,982.8
2016-02-09T10:52:04.873Z,982.77
2016-02-09T10:53:04.923Z,982.69
2016-02-09T10:54:04.973Z,982.62
2016-02-09T10:55:05.022Z,982.54
2016-02-09T10:56:05.087Z,982.47
2016-02-09T10:57:05.153Z,982.37
2016-02-09T10:58:05.202Z,982.38
2016-02-09T10:59:05.236Z,982.33
2016-02-09T11:00:05.317Z,982.23
2016-02-09T11:01:05.351Z,982.19
2016-02-09T11:02:05.401Z,982.16
2016-02-09T11:03:05.482Z,982.06
2016-02-09T11:04:05.501Z,982.05
2016-02-09T11:05:05.550Z,982.01
2016-02-09T11:06:05.615Z,982.03
2016-02-09T11:07:05.649Z,981.94
2016-02-09T11:08:05.715Z,981.87
2016-02-09T11:09:05.765Z,981.78
2016-02-09T11:10:05.818Z,981.68
2016-02-09T11:11:05.868Z,981.62
2016-02-09T11:12:05.933Z,981.57
2016-02-09T11:13:05.967Z,981.5
2016-02-09T11:14:06.032Z,981.47
2016-02-09T11:15:06.083Z,981.45
2016-02-09T11:16:06.131Z,981.46
2016-02-09T11:17:06.180Z,981.38
2016-02-09T11:18:06.231Z,981.36
2016-02-09T11:19:06.299Z,981.33
2016-02-09T11:20:06.333Z,981.31
2016-02-09T11:21:06.399Z,981.3
2016-02-09T11:22:06.450Z,981.2
2016-02-09T11:23:06.500Z,981.13
2016-02-09T11:24:06.533Z,981.08
2016-02-09T11:25:06.600Z,981.04
2016-02-09T11:26:06.649Z,981.03
2016-02-09T11:27:06.699Z,980.97
2016-02-09T11:28:06.747Z,980.94
2016-02-09T11:29:06.797Z,980.93
2016-02-09T11:30:06.864Z,980.86
2016-02-09T11:31:06.915Z,980.85
2016-02-09T11:32:06.964Z,980.78
2016-02-09T11:33:07.013Z,980.74
2016-02-09T11:34:07.062Z,980.67
2016-02-09T11:35:07.112Z,980.64
2016-02-09T11:36:07.193Z,980.6
2016-02-09T11:37:07.227Z,980.55
2016-02-09T11:38:07.278Z,980.53
2016-02-09T11:39:07.328Z,980.51
2016-02-09T11:40:07.378Z,980.51
2016-02-09T11:41:07.443Z,980.47
2016-02-09T11:42:07.492Z,980.42
2016-02-09T11:43:07.542Z,980.38
2016-02-09T11:44:07.577Z,980.36
2016-02-09T11:45:07.641Z,980.38
2016-02-09T11:46:07.694Z,980.31
2016-02-09T11:47:07.743Z,980.24
2016-02-09T11:48:07.793Z,980.24
2016-02-09T11:49:07.843Z,980.15
2016-02-09T11:50:07.891Z,980.14
2016-02-09T11:51:07.978Z,980.09
2016-02-09T11:52:08.013Z,979.93
2016-02-09T11:53:08.063Z,979.93
2016-02-09T11:54:08.115Z,979.84
2016-02-09T11:55:08.181Z,979.84
2016-02-09T11:56:08.215Z,979.81
2016-02-09T11:57:08.264Z,979.8
2016-02-09T11:58:08.314Z,979.79
2016-02-09T11:59:08.379Z,979.89
2016-02-09T12:00:08.429Z,979.88
2016-02-09T12:01:08.494Z,979.9
2016-02-09T12:02:08.528Z,979.8
2016-02-09T12:03:08.581Z,979.81
2016-02-09T12:04:08.630Z,979.75
2016-02-09T12:05:08.670Z,979.73
2016-02-09T12:06:08.735Z,979.69
2016-02-09T12:07:08.801Z,979.7
2016-02-09T12:08:08.834Z,979.57
2016-02-09T12:09:08.884Z,979.54
2016-02-09T12:10:08.934Z,979.54
2016-02-09T12:11:08.986Z,979.47
2016-02-09T12:12:09.067Z,979.45
2016-02-09T12:13:09.101Z,979.38
2016-02-09T12:14:09.150Z,979.33
2016-02-09T12:15:09.200Z,979.3
2016-02-09T12:16:09.250Z,979.21
2016-02-09T12:17:09.299Z,979.16
2016-02-09T12:18:09.348Z,979.1
2016-02-09T12:19:09.414Z,979.05
2016-02-09T12:20:09.464Z,978.99
2016-02-09T12:21:09.518Z,978.98
2016-02-09T12:22:09.569Z,978.91
2016-02-09T12:23:09.634Z,978.85
2016-02-09T12:24:09.668Z,978.79
2016-02-09T12:25:09.732Z,978.74
2016-02-09T12:26:09.782Z,978.75
2016-02-09T12:27:09.835Z,978.66
2016-02-09T12:28:09.884Z,978.65
2016-02-09T12:29:09.934Z,978.49
2016-02-09T12:30:09.988Z,978.55
2016-02-09T12:31:10.037Z,978.62
2016-02-09T12:32:10.102Z,978.45
2016-02-09T12:33:10.153Z,978.51